createdAt,value
2019-03-11T00:02:02.044Z,3.38
2019-03-11T00:04:29.180Z,3.45
2019-03-11T00:06:55.819Z,3.47
2019-03-11T00:09:22.515Z,3.51
2019-03-11T00:11:49.341Z,3.50
2019-03-11T00:14:16.117Z,3.54
2019-03-11T00:16:42.761Z,3.59
2019-03-11T00:19:09.607Z,3.66
2019-03-11T00:21:36.253Z,3.78
2019-03-11T00:24:03.099Z,3.84
2019-03-11T00:26:29.800Z,3.83
2019-03-11T00:28:56.446Z,3.78
2019-03-11T00:31:23.204Z,3.75
2019-03-11T00:33:49.864Z,3.68
2019-03-11T00:36:16.668Z,3.75
2019-03-11T00:38:43.592Z,3.85
2019-03-11T00:41:10.355Z,3.79
2019-03-11T00:43:37.014Z,3.67
2019-03-11T00:46:03.936Z,3.56
2019-03-11T00:48:30.594Z,3.55
2019-03-11T00:50:57.345Z,3.57
2019-03-11T00:53:24.106Z,3.47
2019-03-11T00:55:50.822Z,3.37
2019-03-11T00:58:17.596Z,3.39
2019-03-11T01:00:44.383Z,3.22
2019-03-11T01:03:11.148Z,3.26
2019-03-11T01:05:37.852Z,3.25
2019-03-11T01:08:04.619Z,3.19
2019-03-11T01:10:31.549Z,3.16
2019-03-11T01:12:58.416Z,3.19
2019-03-11T01:15:25.332Z,3.13
2019-03-11T01:17:52.125Z,3.16
2019-03-11T01:20:19.050Z,3.04
2019-03-11T01:22:45.709Z,2.93
2019-03-11T01:25:13.329Z,2.86
2019-03-11T01:27:40.307Z,2.77
2019-03-11T01:30:07.675Z,2.68
2019-03-11T01:32:34.762Z,2.58
2019-03-11T01:35:01.866Z,2.45
2019-03-11T01:37:28.881Z,2.41
2019-03-11T01:39:55.649Z,2.36
2019-03-11T01:42:22.488Z,2.34
2019-03-11T01:44:49.126Z,2.54
2019-03-11T01:47:15.881Z,2.53
2019-03-11T01:49:42.629Z,2.60
2019-03-11T01:52:09.323Z,2.51
2019-03-11T01:54:36.086Z,2.62
2019-03-11T01:57:02.994Z,2.78
2019-03-11T01:59:29.758Z,2.80
2019-03-11T02:01:56.474Z,2.80
2019-03-11T02:04:23.245Z,2.91
2019-03-11T02:06:50.060Z,3.03
2019-03-11T02:09:17.044Z,3.06
2019-03-11T02:11:43.809Z,3.07
2019-03-11T02:14:10.481Z,3.03
2019-03-11T02:16:37.273Z,3.08
2019-03-11T02:19:04.040Z,3.05
2019-03-11T02:21:30.697Z,3.05
2019-03-11T02:23:57.464Z,2.98
2019-03-11T02:26:24.119Z,3.00
2019-03-11T02:28:50.950Z,2.98
2019-03-11T02:31:17.716Z,2.96
2019-03-11T02:33:44.565Z,2.96
2019-03-11T02:36:11.391Z,2.98
2019-03-11T02:38:38.234Z,3.03
2019-03-11T02:41:04.957Z,2.99
2019-03-11T02:43:31.702Z,2.92
2019-03-11T02:45:58.464Z,2.99
2019-03-11T02:48:25.238Z,2.92
2019-03-11T02:50:51.878Z,2.84
2019-03-11T02:53:18.537Z,2.82
2019-03-11T02:55:45.179Z,2.81
2019-03-11T02:58:11.937Z,2.89
2019-03-11T03:00:38.688Z,2.77
2019-03-11T03:03:24.656Z,2.76
2019-03-11T03:05:55.058Z,2.80
2019-03-11T03:08:21.801Z,2.74
2019-03-11T03:10:48.435Z,2.78
2019-03-11T03:13:15.215Z,2.77
2019-03-11T03:15:41.979Z,2.77
2019-03-11T03:18:08.649Z,2.69
2019-03-11T03:20:35.409Z,2.67
2019-03-11T03:23:02.291Z,2.61
2019-03-11T03:25:34.594Z,2.59
2019-03-11T03:27:59.373Z,2.57
2019-03-11T03:30:26.397Z,2.58
2019-03-11T03:32:53.129Z,2.45
2019-03-11T03:35:19.939Z,2.47
2019-03-11T03:37:46.557Z,2.41
2019-03-11T03:40:13.589Z,2.46
2019-03-11T03:42:40.710Z,2.52
2019-03-11T03:45:37.691Z,2.54
2019-03-11T03:48:04.569Z,2.48
2019-03-11T03:50:33.547Z,2.46
2019-03-11T03:53:00.295Z,2.49
2019-03-11T03:55:27.059Z,2.60
2019-03-11T03:57:53.790Z,2.50
2019-03-11T04:00:20.534Z,2.55
2019-03-11T04:02:47.628Z,2.48
2019-03-11T04:05:14.481Z,2.34
2019-03-11T04:07:41.342Z,2.44
2019-03-11T04:10:09.631Z,2.39
2019-03-11T04:12:36.357Z,2.42
2019-03-11T04:15:03.915Z,2.55
2019-03-11T04:17:30.837Z,2.49
2019-03-11T04:19:57.800Z,2.50
2019-03-11T04:22:24.587Z,2.49
2019-03-11T04:24:51.353Z,2.50
2019-03-11T04:27:18.020Z,2.59
2019-03-11T04:29:45.344Z,2.70
2019-03-11T04:32:12.096Z,2.68
2019-03-11T04:34:38.899Z,2.73
2019-03-11T04:37:05.547Z,2.74
2019-03-11T04:39:32.286Z,2.73
2019-03-11T04:41:59.017Z,2.71
2019-03-11T04:44:25.770Z,2.69
2019-03-11T04:46:52.643Z,2.61
2019-03-11T04:49:19.475Z,2.66
2019-03-11T04:51:46.242Z,2.73
2019-03-11T04:54:13.120Z,2.70
2019-03-11T04:56:39.759Z,2.68
2019-03-11T04:59:11.562Z,2.61
2019-03-11T05:01:38.507Z,2.65
2019-03-11T05:04:05.419Z,2.57
2019-03-11T05:06:32.207Z,2.60
2019-03-11T05:08:58.979Z,2.69
2019-03-11T05:11:25.747Z,2.65
2019-03-11T05:13:52.669Z,2.71
2019-03-11T05:16:19.337Z,2.81
2019-03-11T05:18:46.132Z,2.82
2019-03-11T05:21:12.938Z,2.86
2019-03-11T05:23:39.604Z,2.84
2019-03-11T05:26:06.463Z,2.79
2019-03-11T05:28:33.401Z,2.80
2019-03-11T05:31:00.081Z,2.80
2019-03-11T05:33:26.759Z,2.77
2019-03-11T05:35:53.835Z,2.75
2019-03-11T05:38:21.024Z,2.68
2019-03-11T05:40:48.004Z,2.61
2019-03-11T05:43:14.680Z,2.77
2019-03-11T05:45:41.751Z,2.79
2019-03-11T05:48:08.491Z,2.78
2019-03-11T05:50:35.226Z,2.91
2019-03-11T05:53:01.966Z,2.85
2019-03-11T05:55:28.704Z,2.93
2019-03-11T05:57:55.426Z,2.83
2019-03-11T06:00:25.719Z,2.51
2019-03-11T06:02:52.461Z,2.19
2019-03-11T06:05:19.386Z,2.03
2019-03-11T06:07:46.267Z,1.92
2019-03-11T06:10:13.248Z,1.79
2019-03-11T06:12:40.154Z,1.72
2019-03-11T06:15:07.580Z,1.61
2019-03-11T06:17:34.281Z,1.57
2019-03-11T06:20:29.625Z,1.64
2019-03-11T06:22:57.022Z,1.66
2019-03-11T06:25:23.902Z,1.74
2019-03-11T06:27:50.739Z,1.77
2019-03-11T06:30:17.537Z,1.66
2019-03-11T06:32:44.320Z,1.75
2019-03-11T06:35:11.072Z,1.71
2019-03-11T06:37:38.021Z,1.65
2019-03-11T06:40:05.450Z,1.85
2019-03-11T06:42:32.168Z,1.79
2019-03-11T06:44:58.822Z,1.79
2019-03-11T06:47:25.605Z,1.73
2019-03-11T06:49:52.247Z,1.84
2019-03-11T06:52:19.261Z,1.77
2019-03-11T06:54:46.695Z,1.92
2019-03-11T06:57:13.371Z,1.89
2019-03-11T06:59:40.033Z,1.94
2019-03-11T07:02:06.989Z,2.01
2019-03-11T07:04:33.617Z,2.07
2019-03-11T07:07:00.500Z,2.18
2019-03-11T07:09:27.260Z,2.19
2019-03-11T07:11:54.018Z,2.23
2019-03-11T07:14:20.810Z,2.26
2019-03-11T07:16:47.579Z,2.32
2019-03-11T07:19:14.347Z,2.22
2019-03-11T07:21:41.022Z,2.30
2019-03-11T07:24:07.677Z,2.27
2019-03-11T07:26:34.478Z,2.29
2019-03-11T07:29:01.352Z,2.39
2019-03-11T07:31:28.473Z,2.35
2019-03-11T07:33:55.359Z,2.28
2019-03-11T07:36:22.254Z,2.26
2019-03-11T07:38:48.904Z,2.06
2019-03-11T07:41:16.048Z,2.09
2019-03-11T07:43:43.144Z,2.19
2019-03-11T07:46:09.792Z,2.32
2019-03-11T07:48:36.531Z,2.22
2019-03-11T07:51:03.399Z,2.19
2019-03-11T07:53:30.255Z,2.31
2019-03-11T07:55:57.033Z,2.12
2019-03-11T07:58:23.719Z,2.09
2019-03-11T08:01:10.093Z,2.11
2019-03-11T08:03:36.827Z,2.21
2019-03-11T08:06:03.684Z,2.14
2019-03-11T08:08:30.316Z,2.28
2019-03-11T08:10:57.015Z,2.32
2019-03-11T08:13:23.627Z,2.39
2019-03-11T08:15:50.236Z,2.32
2019-03-11T08:18:16.966Z,2.32
2019-03-11T08:20:43.587Z,2.34
2019-03-11T08:23:10.197Z,2.34
2019-03-11T08:25:36.929Z,2.39
2019-03-11T08:28:03.670Z,2.29
2019-03-11T08:30:30.388Z,2.22
2019-03-11T08:32:57.011Z,2.31
2019-03-11T08:35:23.718Z,2.34
2019-03-11T08:37:50.339Z,2.30
2019-03-11T08:40:16.974Z,2.39
2019-03-11T08:42:43.727Z,2.39
2019-03-11T08:45:10.849Z,2.44
2019-03-11T08:47:37.745Z,2.50
2019-03-11T08:50:05.617Z,2.45
2019-03-11T08:52:32.243Z,2.46
2019-03-11T08:54:58.884Z,2.54
2019-03-11T08:57:25.511Z,2.59
2019-03-11T08:59:52.251Z,2.53
2019-03-11T09:02:19.005Z,2.61
2019-03-11T09:04:45.616Z,2.68
2019-03-11T09:07:12.248Z,2.65
2019-03-11T09:09:39.182Z,2.73
2019-03-11T09:12:05.978Z,2.87
2019-03-11T09:14:32.589Z,3.10
2019-03-11T09:16:59.261Z,3.39
2019-03-11T09:19:26.068Z,3.48
2019-03-11T09:21:52.683Z,3.78
2019-03-11T09:24:19.761Z,3.90
2019-03-11T09:26:46.368Z,3.58
2019-03-11T09:29:12.991Z,3.63
2019-03-11T09:31:39.749Z,3.61
2019-03-11T09:34:06.329Z,3.66
2019-03-11T09:36:33.064Z,3.64
2019-03-11T09:38:59.915Z,3.71
2019-03-11T09:41:26.758Z,3.79
2019-03-11T09:43:54.135Z,3.86
2019-03-11T09:46:20.900Z,3.77
2019-03-11T09:48:47.696Z,3.73
2019-03-11T09:51:14.320Z,3.77
2019-03-11T09:53:40.977Z,4.06
2019-03-11T09:56:09.755Z,4.10
2019-03-11T09:58:36.448Z,4.14
2019-03-11T10:01:04.139Z,4.21
2019-03-11T10:03:31.187Z,4.39
2019-03-11T10:05:57.791Z,4.38
2019-03-11T10:08:25.281Z,4.42
2019-03-11T10:10:51.980Z,4.70
2019-03-11T10:13:18.713Z,5.16
2019-03-11T10:15:45.555Z,5.27
2019-03-11T10:18:12.535Z,4.84
2019-03-11T10:20:39.481Z,4.74
2019-03-11T10:23:07.922Z,4.76
2019-03-11T10:25:35.022Z,4.69
2019-03-11T10:28:01.676Z,4.65
2019-03-11T10:30:28.317Z,4.90
2019-03-11T10:32:55.612Z,4.79
2019-03-11T10:35:37.618Z,4.73
2019-03-11T10:37:51.040Z,4.56
2019-03-11T10:40:18.659Z,4.59
2019-03-11T10:42:45.501Z,5.15
2019-03-11T10:45:12.703Z,5.52
2019-03-11T10:47:39.315Z,5.48
2019-03-11T10:50:06.831Z,5.77
2019-03-11T10:52:33.576Z,6.37
2019-03-11T10:55:00.348Z,6.59
2019-03-11T10:57:27.070Z,5.64
2019-03-11T10:59:53.705Z,5.49
2019-03-11T11:02:20.524Z,6.25
2019-03-11T11:04:48.111Z,7.74
2019-03-11T11:07:14.944Z,8.71
2019-03-11T11:09:41.667Z,8.53
2019-03-11T11:12:08.379Z,8.38
2019-03-11T11:14:35.025Z,8.53
2019-03-11T11:17:01.896Z,8.16
2019-03-11T11:19:28.517Z,7.97
2019-03-11T11:21:55.181Z,8.14
2019-03-11T11:24:21.833Z,7.97
2019-03-11T11:26:48.449Z,8.53
2019-03-11T11:29:15.100Z,7.89
2019-03-11T11:31:41.724Z,8.50
2019-03-11T11:34:08.455Z,6.94
2019-03-11T11:36:35.095Z,5.74
2019-03-11T11:39:01.923Z,5.08
2019-03-11T11:41:28.552Z,5.03
2019-03-11T11:43:55.363Z,4.93
2019-03-11T11:46:21.986Z,4.73
2019-03-11T11:48:48.960Z,4.68
2019-03-11T11:51:15.693Z,4.71
2019-03-11T11:53:42.854Z,4.74
2019-03-11T11:56:09.546Z,4.75
2019-03-11T11:58:36.281Z,4.84
2019-03-11T12:01:03.614Z,5.03
2019-03-11T12:03:30.317Z,6.03
2019-03-11T12:05:57.199Z,6.38
2019-03-11T12:08:23.910Z,7.16
2019-03-11T12:10:50.648Z,6.92
2019-03-11T12:13:17.473Z,6.45
2019-03-11T12:15:44.072Z,6.10
2019-03-11T12:18:10.776Z,5.57
2019-03-11T12:20:37.433Z,5.35
2019-03-11T12:23:04.236Z,5.62
2019-03-11T12:25:31.085Z,6.57
2019-03-11T12:27:58.571Z,6.91
2019-03-11T12:30:25.813Z,7.67
2019-03-11T12:32:52.522Z,7.14
2019-03-11T12:35:19.279Z,8.18
2019-03-11T12:37:46.047Z,7.35
2019-03-11T12:40:13.173Z,6.94
2019-03-11T12:42:39.937Z,6.73
2019-03-11T12:45:08.549Z,7.49
2019-03-11T12:47:35.364Z,7.86
2019-03-11T12:50:02.285Z,8.46
2019-03-11T12:52:28.890Z,7.59
2019-03-11T12:54:55.550Z,7.19
2019-03-11T12:57:22.313Z,7.41
2019-03-11T12:59:49.075Z,7.98
2019-03-11T13:02:15.688Z,8.30
2019-03-11T13:04:42.421Z,8.65
2019-03-11T13:07:09.125Z,9.28
2019-03-11T13:09:35.877Z,9.59
2019-03-11T13:12:02.735Z,9.73
2019-03-11T13:14:29.497Z,8.33
2019-03-11T13:16:56.111Z,7.55
2019-03-11T13:19:22.740Z,7.50
2019-03-11T13:21:49.545Z,7.10
2019-03-11T13:24:16.171Z,6.84
2019-03-11T13:26:42.994Z,6.67
2019-03-11T13:29:09.705Z,6.48
2019-03-11T13:31:36.420Z,6.33
2019-03-11T13:34:03.256Z,6.37
2019-03-11T13:36:30.072Z,6.45
2019-03-11T13:38:56.771Z,6.54
2019-03-11T13:41:23.622Z,6.50
2019-03-11T13:43:50.444Z,6.62
2019-03-11T13:46:17.072Z,6.58
2019-03-11T13:48:43.835Z,6.48
2019-03-11T13:51:10.651Z,6.12
2019-03-11T13:53:37.547Z,5.61
2019-03-11T13:56:04.375Z,5.69
2019-03-11T13:58:33.074Z,5.77
2019-03-11T14:00:59.531Z,5.91
2019-03-11T14:03:26.160Z,6.04
2019-03-11T14:05:52.870Z,6.08
2019-03-11T14:08:19.477Z,6.23
2019-03-11T14:10:46.204Z,6.33
2019-03-11T14:13:12.816Z,6.27
2019-03-11T14:15:39.655Z,6.54
2019-03-11T14:18:06.476Z,6.91
2019-03-11T14:20:33.273Z,6.76
2019-03-11T14:22:59.929Z,6.52
2019-03-11T14:25:26.562Z,6.43
2019-03-11T14:27:53.160Z,6.37
2019-03-11T14:30:19.887Z,6.70
2019-03-11T14:32:46.616Z,7.11
2019-03-11T14:35:13.434Z,7.52
2019-03-11T14:37:40.283Z,7.03
2019-03-11T14:40:07.586Z,7.10
2019-03-11T14:42:34.286Z,6.91
2019-03-11T14:45:00.897Z,6.62
2019-03-11T14:47:27.639Z,6.51
2019-03-11T14:49:54.361Z,6.48
2019-03-11T14:52:20.980Z,6.52
2019-03-11T14:54:47.744Z,6.57
2019-03-11T14:57:14.356Z,6.61
2019-03-11T14:59:40.974Z,6.78
2019-03-11T15:02:07.770Z,6.81
2019-03-11T15:04:34.388Z,6.92
2019-03-11T15:07:01.024Z,6.99
2019-03-11T15:09:27.655Z,6.84
2019-03-11T15:11:54.289Z,6.78
2019-03-11T15:14:21.019Z,6.75
2019-03-11T15:16:47.769Z,6.82
2019-03-11T15:19:14.470Z,6.74
2019-03-11T15:21:41.352Z,6.77
2019-03-11T15:24:08.188Z,6.79
2019-03-11T15:26:34.904Z,6.81
2019-03-11T15:29:01.564Z,6.78
2019-03-11T15:31:28.290Z,6.69
2019-03-11T15:33:54.888Z,6.69
2019-03-11T15:36:32.860Z,6.47
2019-03-11T15:38:50.255Z,6.27
2019-03-11T15:41:16.961Z,6.04
2019-03-11T15:43:43.590Z,5.98
2019-03-11T15:46:10.328Z,5.89
2019-03-11T15:48:37.054Z,5.75
2019-03-11T15:51:03.682Z,5.44
2019-03-11T15:53:30.431Z,5.09
2019-03-11T15:55:57.146Z,4.97
2019-03-11T15:58:23.736Z,4.97
2019-03-11T16:00:50.612Z,5.03
2019-03-11T16:03:17.277Z,5.00
2019-03-11T16:05:43.996Z,4.85
2019-03-11T16:08:10.733Z,4.55
2019-03-11T16:10:37.463Z,4.37
2019-03-11T16:13:04.291Z,4.22
2019-03-11T16:15:30.910Z,4.24
2019-03-11T16:17:57.534Z,4.15
2019-03-11T16:20:24.564Z,4.12
2019-03-11T16:22:51.195Z,4.01
2019-03-11T16:25:18.062Z,3.95
2019-03-11T16:27:44.887Z,3.94
2019-03-11T16:30:14.165Z,3.93
2019-03-11T16:32:57.248Z,4.00
2019-03-11T16:35:09.595Z,4.07
2019-03-11T16:37:36.330Z,4.06
2019-03-11T16:40:03.550Z,4.11
2019-03-11T16:42:30.162Z,4.06
2019-03-11T16:44:56.852Z,4.06
2019-03-11T16:47:23.579Z,4.05
2019-03-11T16:49:50.289Z,4.08
2019-03-11T16:52:17.042Z,4.14
2019-03-11T16:54:43.642Z,4.11
2019-03-11T16:57:10.385Z,4.11
2019-03-11T16:59:37.004Z,4.09
2019-03-11T17:02:04.106Z,4.12
2019-03-11T17:04:30.819Z,4.12
2019-03-11T17:06:57.468Z,4.16
2019-03-11T17:09:24.239Z,4.18
2019-03-11T17:11:50.933Z,4.16
2019-03-11T17:14:17.557Z,4.16
2019-03-11T17:16:44.270Z,4.19
2019-03-11T17:19:11.035Z,4.22
2019-03-11T17:21:37.678Z,4.27
2019-03-11T17:24:04.379Z,4.31
2019-03-11T17:26:31.025Z,4.32
2019-03-11T17:28:57.774Z,4.30
2019-03-11T17:31:24.463Z,4.43
2019-03-11T17:33:51.196Z,4.40
2019-03-11T17:36:18.012Z,4.41
2019-03-11T17:38:44.609Z,4.43
2019-03-11T17:41:11.306Z,4.47
2019-03-11T17:43:38.309Z,4.50
2019-03-11T17:46:05.111Z,4.50
2019-03-11T17:48:31.809Z,4.58
2019-03-11T17:50:58.561Z,4.60
2019-03-11T17:53:25.301Z,4.62
2019-03-11T17:55:52.015Z,4.62
2019-03-11T17:58:18.660Z,4.56
2019-03-11T18:00:54.831Z,4.49
2019-03-11T18:03:14.934Z,4.42
2019-03-11T18:05:41.754Z,4.43
2019-03-11T18:08:08.556Z,4.41
2019-03-11T18:10:35.308Z,4.37
2019-03-11T18:13:02.409Z,4.47
2019-03-11T18:15:29.122Z,4.47
2019-03-11T18:17:55.809Z,4.52
2019-03-11T18:20:22.661Z,4.54
2019-03-11T18:22:49.392Z,4.54
2019-03-11T18:25:16.208Z,4.55
2019-03-11T18:27:43.028Z,4.58
2019-03-11T18:30:11.942Z,4.59
2019-03-11T18:32:38.749Z,4.61
2019-03-11T18:35:05.608Z,4.65
2019-03-11T18:37:32.317Z,4.64
2019-03-11T18:39:58.956Z,4.65
2019-03-11T18:42:28.407Z,4.60
2019-03-11T18:44:54.415Z,4.56
2019-03-11T18:47:21.138Z,4.51
2019-03-11T18:49:48.053Z,4.42
2019-03-11T18:52:14.864Z,4.42
2019-03-11T18:54:41.490Z,4.41
2019-03-11T18:57:08.302Z,4.36
2019-03-11T18:59:34.947Z,4.29
2019-03-11T19:02:01.611Z,4.31
2019-03-11T19:04:28.396Z,4.38
2019-03-11T19:06:55.101Z,4.37
2019-03-11T19:09:21.707Z,4.37
2019-03-11T19:11:48.443Z,4.34
2019-03-11T19:14:15.311Z,4.35
2019-03-11T19:16:42.000Z,4.45
2019-03-11T19:19:08.772Z,4.35
2019-03-11T19:21:35.553Z,4.33
2019-03-11T19:24:02.459Z,4.35
2019-03-11T19:26:29.181Z,4.41
2019-03-11T19:28:55.822Z,4.33
2019-03-11T19:31:22.427Z,4.29
2019-03-11T19:33:49.169Z,4.29
2019-03-11T19:36:15.966Z,4.38
2019-03-11T19:38:42.689Z,4.41
2019-03-11T19:41:09.313Z,4.44
2019-03-11T19:43:36.039Z,4.42
2019-03-11T19:46:02.736Z,4.43
2019-03-11T19:48:29.509Z,4.47
2019-03-11T19:50:56.214Z,4.44
2019-03-11T19:53:22.924Z,4.49
2019-03-11T19:55:49.652Z,4.47
2019-03-11T19:58:16.406Z,4.45
2019-03-11T20:00:43.188Z,4.51
2019-03-11T20:03:22.680Z,4.48
2019-03-11T20:05:38.654Z,4.49
2019-03-11T20:08:05.457Z,4.38
2019-03-11T20:10:32.286Z,4.41
2019-03-11T20:12:59.011Z,4.42
2019-03-11T20:15:26.026Z,4.38
2019-03-11T20:17:53.044Z,4.41
2019-03-11T20:20:20.163Z,4.41
2019-03-11T20:22:47.000Z,4.39
2019-03-11T20:25:16.568Z,4.42
2019-03-11T20:27:43.323Z,4.50
2019-03-11T20:30:13.604Z,4.47
2019-03-11T20:32:40.301Z,4.52
2019-03-11T20:35:07.165Z,4.43
2019-03-11T20:37:33.867Z,4.42
2019-03-11T20:40:00.479Z,4.49
2019-03-11T20:42:27.343Z,4.51
2019-03-11T20:44:54.719Z,4.48
2019-03-11T20:47:21.639Z,4.50
2019-03-11T20:49:48.645Z,4.56
2019-03-11T20:52:15.369Z,4.59
2019-03-11T20:54:42.105Z,4.58
2019-03-11T20:57:08.735Z,4.56
2019-03-11T20:59:35.338Z,4.60
2019-03-11T21:02:02.089Z,4.56
2019-03-11T21:04:28.817Z,4.54
2019-03-11T21:06:55.489Z,4.59
2019-03-11T21:09:22.356Z,4.63
2019-03-11T21:11:49.103Z,4.64
2019-03-11T21:14:16.010Z,4.55
2019-03-11T21:16:42.644Z,4.59
2019-03-11T21:19:09.243Z,4.54
2019-03-11T21:21:36.006Z,4.53
2019-03-11T21:24:02.815Z,4.61
2019-03-11T21:26:29.578Z,4.54
2019-03-11T21:28:56.234Z,4.56
2019-03-11T21:31:22.970Z,4.58
2019-03-11T21:33:58.386Z,4.53
2019-03-11T21:36:18.365Z,4.53
2019-03-11T21:38:45.010Z,4.51
2019-03-11T21:41:11.845Z,4.55
2019-03-11T21:43:38.963Z,4.51
2019-03-11T21:46:06.300Z,4.57
2019-03-11T21:48:33.020Z,4.48
2019-03-11T21:50:59.939Z,4.48
2019-03-11T21:53:26.975Z,4.53
2019-03-11T21:55:53.912Z,4.54
2019-03-11T21:58:21.084Z,4.54
2019-03-11T22:00:47.918Z,4.56
2019-03-11T22:03:15.132Z,4.49
2019-03-11T22:05:41.844Z,4.51
2019-03-11T22:08:08.611Z,4.51
2019-03-11T22:10:35.328Z,4.55
2019-03-11T22:13:01.942Z,4.51
2019-03-11T22:15:28.874Z,4.47
2019-03-11T22:17:55.567Z,4.53
2019-03-11T22:20:22.379Z,4.49
2019-03-11T22:22:49.216Z,4.55
2019-03-11T22:25:15.924Z,4.54
2019-03-11T22:27:42.642Z,4.52
2019-03-11T22:30:16.797Z,4.53
2019-03-11T22:32:43.502Z,4.71
2019-03-11T22:35:12.996Z,4.67
2019-03-11T22:37:38.750Z,4.62
2019-03-11T22:40:06.389Z,4.55
2019-03-11T22:42:33.117Z,4.37
2019-03-11T22:44:59.743Z,4.43
2019-03-11T22:47:26.484Z,4.46
2019-03-11T22:49:53.116Z,4.54
2019-03-11T22:52:19.836Z,4.52
2019-03-11T22:54:46.484Z,4.46
2019-03-11T22:57:13.155Z,4.41
2019-03-11T22:59:39.875Z,4.52
2019-03-11T23:02:11.714Z,4.52
2019-03-11T23:04:38.221Z,4.41
2019-03-11T23:07:04.936Z,4.37
2019-03-11T23:09:31.535Z,4.21
2019-03-11T23:11:58.281Z,4.27
2019-03-11T23:14:24.873Z,4.14
2019-03-11T23:16:51.476Z,4.14
2019-03-11T23:19:18.185Z,4.24
2019-03-11T23:21:44.786Z,4.05
2019-03-11T23:24:11.387Z,4.11
2019-03-11T23:26:38.020Z,4.11
2019-03-11T23:29:04.719Z,3.89
2019-03-11T23:31:31.344Z,3.91
2019-03-11T23:33:57.994Z,3.70
2019-03-11T23:36:24.601Z,3.74
2019-03-11T23:38:51.195Z,3.78
2019-03-11T23:41:17.844Z,3.59
2019-03-11T23:43:44.539Z,3.47
2019-03-11T23:46:11.178Z,3.39
2019-03-11T23:48:37.813Z,3.26
2019-03-11T23:51:04.428Z,3.37
2019-03-11T23:53:31.035Z,3.23
2019-03-11T23:55:57.675Z,3.40
2019-03-11T23:58:24.279Z,3.53
